Time;durP1;ratioP1;P1;durP2;ratioP2;P2;SDS_P1;SDS_P2;PMS_P1;PMS_P2;Temp;Humidity;BMP_temperature;BMP_pressure;BME280_temperature;BME280_humidity;BME280_pressure;Samples;Min_cycle;Max_cycle;Signal;HPM_P1;HPM_P2
2022/09/26 06:54:24;;;;;;;1.30;0.60;;;12.10;99.90;;;;;;6214715;23;20226;-67
2022/09/26 06:56:51;;;;;;;2.83;0.87;;;12.00;99.90;;;;;;6215910;23;20183;-71
2022/09/26 06:59:18;;;;;;;2.97;0.80;;;12.00;99.90;;;;;;6215886;23;20521;-67
2022/09/26 07:01:46;;;;;;;6.80;0.90;;;12.00;99.90;;;;;;6215224;23;20504;-67
2022/09/26 07:04:16;;;;;;;2.90;0.80;;;12.20;99.90;;;;;;6215810;23;20181;-69
2022/09/26 07:06:43;;;;;;;1.93;0.83;;;12.30;99.90;;;;;;6215394;23;20243;-67
2022/09/26 07:09:10;;;;;;;3.57;0.80;;;12.20;99.90;;;;;;6215272;23;20279;-68
2022/09/26 07:11:39;;;;;;;3.70;0.67;;;12.20;99.90;;;;;;6215979;23;20178;-70
2022/09/26 07:14:05;;;;;;;4.60;0.60;;;12.30;99.90;;;;;;6215872;23;20177;-68
2022/09/26 07:16:32;;;;;;;2.27;0.80;;;12.30;99.90;;;;;;6215751;23;20200;-67
2022/09/26 07:18:59;;;;;;;1.53;0.70;;;12.30;99.90;;;;;;6215864;23;20202;-68
2022/09/26 07:21:26;;;;;;;3.43;0.90;;;12.50;99.90;;;;;;6215946;23;20176;-66
2022/09/26 07:23:56;;;;;;;3.93;0.90;;;12.50;99.90;;;;;;6215281;23;20690;-67
2022/09/26 07:26:23;;;;;;;2.30;0.70;;;12.60;99.90;;;;;;6215920;23;20183;-66
2022/09/26 07:28:51;;;;;;;1.17;0.70;;;12.60;99.90;;;;;;6215378;23;20187;-66
2022/09/26 07:31:18;;;;;;;2.27;0.57;;;12.60;99.90;;;;;;6215876;23;20183;-66
2022/09/26 07:33:45;;;;;;;1.70;0.60;;;12.70;99.90;;;;;;6215787;23;20184;-67
2022/09/26 07:36:11;;;;;;;1.87;0.77;;;12.60;99.90;;;;;;6216114;23;20183;-66
2022/09/26 07:38:38;;;;;;;2.10;0.50;;;12.70;99.90;;;;;;6215595;23;20204;-66
2022/09/26 07:41:10;;;;;;;3.27;0.80;;;12.80;99.90;;;;;;6215413;23;20578;-67
2022/09/26 07:43:36;;;;;;;1.80;0.70;;;12.80;99.90;;;;;;6215548;23;20205;-66
2022/09/26 07:51:34;;;;;;;2.27;0.67;;;12.90;99.90;;;;;;6215599;23;20179;-66
2022/09/26 07:54:00;;;;;;;1.00;0.70;;;12.90;99.90;;;;;;6215063;23;20177;-66
2022/09/26 07:56:28;;;;;;;2.53;1.00;;;12.80;99.90;;;;;;6215572;23;20183;-66
2022/09/26 07:58:54;;;;;;;1.90;0.83;;;12.70;99.90;;;;;;6215113;23;20181;-66
2022/09/26 08:01:24;;;;;;;2.03;0.70;;;12.70;99.90;;;;;;6215257;23;20208;-66
2022/09/26 08:03:56;;;;;;;2.03;0.67;;;12.70;99.90;;;;;;6214725;23;20283;-68
2022/09/26 08:06:23;;;;;;;1.00;0.60;;;12.70;99.90;;;;;;6215228;23;20633;-66
2022/09/26 08:08:52;;;;;;;1.53;0.50;;;12.70;99.90;;;;;;6214609;23;20191;-69
2022/09/26 08:11:20;;;;;;;3.07;1.23;;;12.80;99.90;;;;;;6215333;23;20181;-66
2022/09/26 08:13:47;;;;;;;1.13;0.50;;;12.70;99.90;;;;;;6215424;23;20230;-68
2022/09/26 08:16:22;;;;;;;2.33;0.70;;;12.80;99.90;;;;;;6215754;23;20184;-67
2022/09/26 08:18:50;;;;;;;1.37;0.53;;;12.90;99.90;;;;;;6215797;23;20226;-68
2022/09/26 08:21:17;;;;;;;2.17;0.87;;;13.00;99.90;;;;;;6215344;23;20651;-66
2022/09/26 08:23:45;;;;;;;0.90;0.50;;;13.00;99.90;;;;;;6214996;23;20266;-68
2022/09/26 08:26:12;;;;;;;1.33;0.50;;;13.20;99.90;;;;;;6215781;23;20183;-66
2022/09/26 08:28:39;;;;;;;1.73;0.57;;;13.40;99.90;;;;;;6215468;23;20183;-67
2022/09/26 08:31:07;;;;;;;2.20;0.53;;;13.60;99.90;;;;;;6215474;23;20647;-67
2022/09/26 08:33:36;;;;;;;0.73;0.50;;;13.70;99.90;;;;;;6215909;23;20176;-67
2022/09/26 08:36:05;;;;;;;2.10;0.43;;;13.90;99.90;;;;;;6215826;23;20176;-66
2022/09/26 08:38:32;;;;;;;3.00;0.50;;;13.90;99.90;;;;;;6215677;23;20259;-68
2022/09/26 08:41:10;;;;;;;1.33;0.70;;;13.90;99.90;;;;;;6215758;23;20197;-69
2022/09/26 08:43:47;;;;;;;5.30;0.60;;;13.80;99.90;;;;;;6215539;23;20266;-70
2022/09/26 08:46:41;;;;;;;1.17;0.47;;;13.70;99.90;;;;;;6215872;23;20176;-68
2022/09/26 08:49:27;;;;;;;1.73;0.60;;;13.60;99.90;;;;;;6215502;23;20201;-67
2022/09/26 08:51:58;;;;;;;1.27;0.70;;;13.50;99.90;;;;;;6219621;23;20500;-67
2022/09/26 08:54:33;;;;;;;2.10;0.93;;;13.50;99.90;;;;;;6246033;23;20186;-66
2022/09/26 08:57:05;;;;;;;2.77;0.50;;;13.60;99.90;;;;;;6246109;23;20183;-67
2022/09/26 08:59:38;;;;;;;1.70;0.63;;;13.60;99.90;;;;;;6242960;23;20230;-69
2022/09/26 09:02:21;;;;;;;0.93;0.63;;;13.60;99.90;;;;;;6244854;23;20642;-69
2022/09/26 09:04:56;;;;;;;1.47;0.63;;;13.60;99.90;;;;;;6245161;23;20511;-68
2022/09/26 09:07:25;;;;;;;1.50;0.50;;;13.70;99.90;;;;;;6240605;22;20499;-68
2022/09/26 09:09:57;;;;;;;0.60;0.40;;;13.70;99.90;;;;;;6244958;23;20205;-69
2022/09/26 09:12:35;;;;;;;4.43;0.73;;;13.60;99.90;;;;;;6245263;23;20258;-68
2022/09/26 09:15:23;;;;;;;1.20;0.40;;;13.60;99.90;;;;;;6247047;23;20176;-69
2022/09/26 09:17:58;;;;;;;1.20;0.50;;;13.50;99.90;;;;;;6247194;23;20176;-71
2022/09/26 09:20:39;;;;;;;2.00;0.53;;;13.30;99.90;;;;;;6244411;23;20195;-71
2022/09/26 09:23:22;;;;;;;1.40;0.80;;;13.40;99.90;;;;;;6245030;23;20203;-71
2022/09/26 09:26:00;;;;;;;1.23;0.60;;;13.50;99.90;;;;;;6242488;23;20183;-72
2022/09/26 09:28:36;;;;;;;1.07;0.60;;;13.50;99.90;;;;;;6245506;23;20185;-72
2022/09/26 09:31:06;;;;;;;2.37;0.70;;;13.30;99.90;;;;;;6245234;23;20532;-70
2022/09/26 09:33:38;;;;;;;2.00;0.60;;;13.30;99.90;;;;;;6245359;23;20197;-69
2022/09/26 09:36:09;;;;;;;1.60;0.50;;;13.30;99.90;;;;;;6244665;23;20182;-72
2022/09/26 09:38:39;;;;;;;3.30;0.70;;;13.30;99.90;;;;;;6244098;23;20640;-71
2022/09/26 09:41:10;;;;;;;0.93;0.60;;;13.20;99.90;;;;;;6245586;23;20175;-73
2022/09/26 09:43:40;;;;;;;0.90;0.60;;;13.20;99.90;;;;;;6244750;23;20214;-72
2022/09/26 09:46:15;;;;;;;2.10;0.60;;;13.00;99.90;;;;;;6245544;22;20197;-72
2022/09/26 09:48:46;;;;;;;1.37;0.70;;;12.90;99.90;;;;;;6243402;23;20179;-73
2022/09/26 09:51:26;;;;;;;0.90;0.60;;;12.80;99.90;;;;;;6243484;23;20175;-74
2022/09/26 09:54:18;;;;;;;1.17;0.70;;;12.70;99.90;;;;;;6244099;23;20183;-72
2022/09/26 09:56:58;;;;;;;1.87;0.60;;;12.70;99.90;;;;;;6228883;23;20187;-74
2022/09/26 09:59:48;;;;;;;1.90;0.60;;;12.70;99.90;;;;;;6244664;23;20206;-72
2022/09/26 10:02:23;;;;;;;4.07;0.90;;;12.70;99.90;;;;;;6244882;23;20190;-75
2022/09/26 10:04:58;;;;;;;1.17;0.90;;;12.70;99.90;;;;;;6244543;23;20219;-72
2022/09/26 10:07:24;;;;;;;4.43;0.90;;;12.70;99.90;;;;;;6245881;23;20181;-72
2022/09/26 10:09:53;;;;;;;1.67;0.60;;;12.80;99.90;;;;;;6245260;22;20196;-75
2022/09/26 10:12:28;;;;;;;1.10;0.73;;;12.90;99.90;;;;;;6244966;22;20188;-74
2022/09/26 10:14:57;;;;;;;1.80;0.70;;;12.80;99.90;;;;;;6245737;23;20179;-74
2022/09/26 10:17:24;;;;;;;2.30;0.90;;;12.70;99.90;;;;;;6245231;23;20182;-72
2022/09/26 10:19:51;;;;;;;1.37;1.00;;;12.80;99.90;;;;;;6241317;23;20200;-73
2022/09/26 10:22:24;;;;;;;2.37;0.60;;;12.80;99.90;;;;;;6244674;23;20179;-72
2022/09/26 10:24:59;;;;;;;1.37;0.60;;;12.80;99.90;;;;;;6244565;23;20207;-73
2022/09/26 10:27:36;;;;;;;1.40;0.70;;;12.90;99.90;;;;;;6244176;22;20233;-75
2022/09/26 10:30:08;;;;;;;3.37;1.57;;;12.90;99.90;;;;;;6244754;23;20202;-74
2022/09/26 10:32:44;;;;;;;2.07;0.53;;;13.00;99.90;;;;;;6244959;23;20262;-76
2022/09/26 10:35:19;;;;;;;2.57;0.80;;;13.10;99.90;;;;;;6244671;23;20298;-73
2022/09/26 10:37:49;;;;;;;2.00;0.70;;;13.20;99.90;;;;;;6245580;22;20174;-73
2022/09/26 10:43:21;;;;;;;1.13;0.70;;;13.30;99.90;;;;;;6244673;23;20210;-73
2022/09/26 10:45:52;;;;;;;1.30;0.87;;;13.30;99.90;;;;;;6245462;23;20218;-74
2022/09/26 10:48:20;;;;;;;3.43;0.67;;;13.30;99.90;;;;;;6244992;22;20222;-73
2022/09/26 10:50:50;;;;;;;1.30;0.67;;;13.10;99.90;;;;;;6244633;23;20283;-76
2022/09/26 10:53:21;;;;;;;1.70;0.50;;;13.20;99.90;;;;;;6246156;22;20217;-70
2022/09/26 10:55:56;;;;;;;2.30;0.60;;;13.20;99.90;;;;;;6246223;23;20184;-72
2022/09/26 10:58:28;;;;;;;2.07;0.93;;;13.20;99.90;;;;;;6246072;23;20186;-72
2022/09/26 11:00:56;;;;;;;3.33;0.80;;;13.10;99.90;;;;;;6246425;23;20206;-71
2022/09/26 11:03:32;;;;;;;1.10;0.70;;;13.00;99.90;;;;;;6246287;23;20212;-72
2022/09/26 11:05:58;;;;;;;2.60;0.83;;;12.90;99.90;;;;;;6246514;22;20554;-71
2022/09/26 11:08:28;;;;;;;3.37;0.70;;;12.80;99.90;;;;;;6246187;23;20267;-71
2022/09/26 11:10:57;;;;;;;0.73;0.60;;;12.80;99.90;;;;;;6246041;23;20196;-72
2022/09/26 11:13:25;;;;;;;3.27;0.67;;;12.80;99.90;;;;;;6246174;22;20686;-72
2022/09/26 11:16:00;;;;;;;1.60;0.70;;;12.80;99.90;;;;;;6246499;23;20500;-71
2022/09/26 11:18:33;;;;;;;2.50;0.70;;;12.80;99.90;;;;;;6246332;23;20175;-70
2022/09/26 11:21:06;;;;;;;1.60;0.63;;;12.80;99.90;;;;;;6245895;23;20206;-71
2022/09/26 11:23:40;;;;;;;3.27;1.00;;;12.80;99.90;;;;;;6245653;23;20214;-72
2022/09/26 11:26:17;;;;;;;1.40;0.70;;;12.90;99.90;;;;;;6245782;23;20631;-71
2022/09/26 11:28:48;;;;;;;1.70;0.53;;;12.90;99.90;;;;;;6246491;23;20176;-72
2022/09/26 11:31:24;;;;;;;2.07;0.60;;;12.80;99.90;;;;;;6246326;23;20182;-71
2022/09/26 11:33:51;;;;;;;2.07;0.60;;;12.90;99.90;;;;;;6246445;23;20225;-72
2022/09/26 11:36:34;;;;;;;1.87;0.77;;;13.00;99.90;;;;;;6245917;23;20203;-71
2022/09/26 11:39:17;;;;;;;5.17;0.77;;;12.90;99.90;;;;;;6245712;23;20644;-71
2022/09/26 11:42:00;;;;;;;1.40;0.80;;;13.00;99.90;;;;;;6245879;22;20535;-71
2022/09/26 11:44:57;;;;;;;2.03;0.70;;;13.00;99.90;;;;;;6245728;23;20203;-71
2022/09/26 11:47:45;;;;;;;1.07;0.57;;;13.10;99.90;;;;;;6246046;22;20179;-72
2022/09/26 11:50:34;;;;;;;3.00;0.80;;;13.00;99.90;;;;;;6246119;22;20282;-72
2022/09/26 11:53:14;;;;;;;1.53;0.80;;;13.00;99.90;;;;;;6246026;23;20187;-72
2022/09/26 11:56:00;;;;;;;1.90;0.50;;;13.00;99.90;;;;;;6246154;22;20176;-72
2022/09/26 11:58:38;;;;;;;1.90;0.80;;;13.00;99.90;;;;;;6246056;23;20182;-74
2022/09/26 12:01:18;;;;;;;0.90;0.60;;;13.00;99.90;;;;;;6240228;23;20180;-73
2022/09/26 12:04:28;;;;;;;1.03;0.70;;;13.00;99.90;;;;;;6244363;23;20509;-73
2022/09/26 12:07:00;;;;;;;1.83;0.60;;;13.20;99.90;;;;;;6244648;23;20623;-77
2022/09/26 12:09:46;;;;;;;1.33;0.53;;;13.30;99.90;;;;;;6243508;23;20199;-73
2022/09/26 12:12:19;;;;;;;1.60;1.00;;;13.40;99.90;;;;;;6245583;23;20655;-72
2022/09/26 12:15:07;;;;;;;0.50;0.40;;;13.50;99.90;;;;;;6242245;23;20182;-72
2022/09/26 12:17:48;;;;;;;2.83;0.60;;;13.50;99.90;;;;;;6245555;23;20176;-73
2022/09/26 12:20:26;;;;;;;2.53;0.63;;;13.50;99.90;;;;;;6245710;23;20195;-74
2022/09/26 12:23:00;;;;;;;0.70;0.50;;;13.40;99.90;;;;;;6246186;23;20179;-73
2022/09/26 12:25:37;;;;;;;2.33;0.90;;;13.30;99.90;;;;;;6245731;23;20213;-74
2022/09/26 12:28:18;;;;;;;1.67;0.70;;;13.30;99.90;;;;;;6245902;23;20323;-74
2022/09/26 12:30:55;;;;;;;2.20;0.60;;;13.40;99.90;;;;;;6245626;22;20275;-74
2022/09/26 12:33:37;;;;;;;1.70;0.50;;;13.40;99.90;;;;;;6246130;23;20237;-74
2022/09/26 12:36:17;;;;;;;2.20;0.60;;;13.50;99.90;;;;;;6245813;23;20474;-74
2022/09/26 12:39:04;;;;;;;1.10;0.50;;;13.50;99.90;;;;;;6245303;23;20179;-73
2022/09/26 12:41:50;;;;;;;3.90;0.60;;;13.40;99.90;;;;;;6245365;23;20658;-73
2022/09/26 12:44:41;;;;;;;0.60;0.47;;;13.60;99.90;;;;;;6245630;23;20207;-74
2022/09/26 12:47:36;;;;;;;0.70;0.40;;;13.50;99.90;;;;;;6246019;23;20254;-74
2022/09/26 12:50:17;;;;;;;0.67;0.40;;;13.50;99.90;;;;;;6248072;23;20195;-73
2022/09/26 12:53:18;;;;;;;0.40;0.30;;;13.30;99.90;;;;;;6247805;23;20192;-73
2022/09/26 12:55:55;;;;;;;0.63;0.40;;;13.10;99.90;;;;;;6247828;23;20176;-73
2022/09/26 12:58:33;;;;;;;1.33;0.57;;;13.10;99.90;;;;;;6247915;23;20175;-73
2022/09/26 13:01:12;;;;;;;2.37;0.50;;;13.10;99.90;;;;;;6247786;23;20201;-72
2022/09/26 13:04:06;;;;;;;0.63;0.40;;;13.10;99.90;;;;;;6247784;23;20234;-74
2022/09/26 13:06:59;;;;;;;1.57;0.50;;;13.10;99.90;;;;;;6247680;23;20654;-73
2022/09/26 13:09:42;;;;;;;0.77;0.50;;;13.20;99.90;;;;;;6247402;22;20202;-72
2022/09/26 13:12:20;;;;;;;0.87;0.37;;;13.20;99.90;;;;;;6247769;23;20208;-74
2022/09/26 13:15:01;;;;;;;0.70;0.50;;;13.10;99.90;;;;;;6247883;23;20175;-70
2022/09/26 13:17:33;;;;;;;1.70;0.60;;;13.10;99.90;;;;;;6247641;23;20179;-70
2022/09/26 13:20:13;;;;;;;2.40;0.50;;;13.10;99.90;;;;;;6247678;23;20279;-73
2022/09/26 13:22:45;;;;;;;0.73;0.50;;;13.10;99.90;;;;;;6247768;23;20496;-71
2022/09/26 13:25:18;;;;;;;0.73;0.43;;;13.20;99.90;;;;;;6247131;23;20203;-73
2022/09/26 13:27:51;;;;;;;0.83;0.40;;;13.20;99.90;;;;;;6247568;22;20635;-71
2022/09/26 13:30:21;;;;;;;0.90;0.47;;;13.20;99.90;;;;;;6247345;23;20520;-73
2022/09/26 13:32:55;;;;;;;0.70;0.40;;;13.10;99.90;;;;;;6247059;23;20245;-71
2022/09/26 13:35:26;;;;;;;0.33;0.30;;;13.10;99.90;;;;;;6247630;23;20189;-72
2022/09/26 13:38:17;;;;;;;4.13;2.17;;;12.90;99.90;;;;;;6247524;23;20207;-73
2022/09/26 13:40:53;;;;;;;0.83;0.50;;;13.00;99.90;;;;;;6246954;23;20271;-73
2022/09/26 13:43:42;;;;;;;1.07;0.40;;;13.10;99.90;;;;;;6247172;23;20181;-70
2022/09/26 13:46:20;;;;;;;2.60;0.50;;;13.10;99.90;;;;;;6247491;23;20179;-73
2022/09/26 13:48:57;;;;;;;0.70;0.50;;;13.10;99.90;;;;;;6247401;23;20509;-73
2022/09/26 13:51:33;;;;;;;0.97;0.50;;;13.00;99.90;;;;;;6247409;23;20187;-72
2022/09/26 13:54:10;;;;;;;0.60;0.40;;;13.00;99.90;;;;;;6246797;23;20194;-71
2022/09/26 13:56:47;;;;;;;0.60;0.40;;;13.10;99.90;;;;;;6247371;22;20186;-72
2022/09/26 13:59:26;;;;;;;0.50;0.40;;;12.90;99.90;;;;;;6247246;22;20195;-70
2022/09/26 14:02:23;;;;;;;2.83;0.50;;;12.90;99.90;;;;;;6246769;23;20179;-70
2022/09/26 14:04:51;;;;;;;0.97;0.50;;;12.90;99.90;;;;;;6247400;22;20215;-72
2022/09/26 14:10:18;;;;;;;0.73;0.40;;;12.80;99.90;;;;;;6246812;23;20283;-72
2022/09/26 14:13:17;;;;;;;1.13;0.40;;;12.80;99.90;;;;;;6247284;22;20176;-71
2022/09/26 14:15:58;;;;;;;2.00;0.40;;;12.80;99.90;;;;;;6247084;22;20187;-72
2022/09/26 14:19:00;;;;;;;0.80;0.40;;;12.70;99.90;;;;;;6246852;23;20658;-72
2022/09/26 14:21:45;;;;;;;0.80;0.40;;;12.70;99.90;;;;;;6153915;23;20209;-72
2022/09/26 14:24:35;;;;;;;0.70;0.57;;;12.70;99.90;;;;;;6154081;23;20213;-71
2022/09/26 14:27:21;;;;;;;1.03;0.40;;;12.70;99.90;;;;;;6222145;23;20235;-72
2022/09/26 14:29:52;;;;;;;0.70;0.33;;;12.70;99.90;;;;;;6247124;22;20213;-70
2022/09/26 14:32:22;;;;;;;1.83;0.90;;;12.80;99.90;;;;;;6247136;23;20179;-72
2022/09/26 14:34:54;;;;;;;1.13;0.80;;;12.90;99.90;;;;;;6247789;23;20560;-72
2022/09/26 14:37:40;;;;;;;0.83;0.60;;;12.80;99.90;;;;;;6247400;23;20176;-72
2022/09/26 14:40:24;;;;;;;2.27;1.40;;;12.90;99.90;;;;;;6246845;23;20275;-72
2022/09/26 14:42:56;;;;;;;1.37;0.80;;;12.90;99.90;;;;;;6247379;23;20175;-70
2022/09/26 14:45:26;;;;;;;1.53;0.80;;;13.00;99.90;;;;;;6246266;23;20283;-70
2022/09/26 14:48:04;;;;;;;7.40;6.43;;;12.90;99.90;;;;;;6247083;23;20180;-72
2022/09/26 14:50:34;;;;;;;1.00;0.60;;;12.80;99.90;;;;;;6246878;23;20307;-71
2022/09/26 14:53:10;;;;;;;0.97;0.50;;;12.80;99.90;;;;;;6246229;22;20648;-70
2022/09/26 14:55:53;;;;;;;0.87;0.50;;;12.80;99.90;;;;;;6246419;22;20257;-70
2022/09/26 14:58:30;;;;;;;0.80;0.50;;;12.90;99.90;;;;;;6246197;23;20263;-70
2022/09/26 15:01:02;;;;;;;0.93;0.60;;;13.00;99.90;;;;;;6246377;23;20271;-71
2022/09/26 15:03:30;;;;;;;1.00;0.47;;;13.00;99.90;;;;;;6246098;23;20187;-70
2022/09/26 15:05:58;;;;;;;0.67;0.60;;;13.10;99.90;;;;;;6246421;23;20575;-71
2022/09/26 15:08:27;;;;;;;2.10;0.60;;;13.00;99.90;;;;;;6246343;23;20215;-71
2022/09/26 15:10:57;;;;;;;1.17;0.90;;;13.00;99.90;;;;;;6245979;23;20207;-72
2022/09/26 15:13:31;;;;;;;0.53;0.40;;;13.00;99.90;;;;;;6246206;23;20190;-72
2022/09/26 15:16:08;;;;;;;2.60;0.60;;;13.00;99.90;;;;;;6246432;22;20503;-70
2022/09/26 15:18:38;;;;;;;0.60;0.30;;;13.10;99.90;;;;;;6246629;23;20183;-72
2022/09/26 15:21:12;;;;;;;0.90;0.50;;;13.10;99.90;;;;;;6246302;23;20703;-72
2022/09/26 15:23:48;;;;;;;0.80;0.53;;;13.00;99.90;;;;;;6246220;23;20719;-71
2022/09/26 15:26:19;;;;;;;1.93;1.20;;;13.10;99.90;;;;;;6246372;23;20234;-72
2022/09/26 15:28:49;;;;;;;1.00;0.60;;;13.20;99.90;;;;;;6246286;23;20175;-73
2022/09/26 15:31:22;;;;;;;0.83;0.60;;;13.10;99.90;;;;;;6246368;23;20176;-73
2022/09/26 15:33:51;;;;;;;0.60;0.60;;;13.20;99.90;;;;;;6246275;23;20679;-72
2022/09/26 15:36:18;;;;;;;1.50;0.70;;;13.30;99.90;;;;;;6246273;23;20202;-72
2022/09/26 15:38:45;;;;;;;2.63;0.97;;;13.30;99.90;;;;;;6246349;23;20182;-72
2022/09/26 15:42:56;;;;;;;1.70;0.80;;;13.30;99.90;;;;;;6246443;23;20175;-72
2022/09/26 15:44:06;;;;;;;2.57;1.10;;;13.30;99.90;;;;;;6245896;23;20521;-73
2022/09/26 15:46:33;;;;;;;1.30;0.90;;;13.30;99.90;;;;;;6245972;22;20628;-72
2022/09/26 15:49:00;;;;;;;1.30;0.90;;;13.20;99.90;;;;;;6245992;23;20283;-70
2022/09/26 15:51:34;;;;;;;1.20;0.70;;;13.10;99.90;;;;;;6245826;23;20179;-72
2022/09/26 15:54:04;;;;;;;2.20;0.97;;;13.20;99.90;;;;;;6246137;23;20175;-72
2022/09/26 15:56:39;;;;;;;0.70;0.50;;;13.20;99.90;;;;;;6246342;23;20179;-73
2022/09/26 15:59:11;;;;;;;1.20;0.77;;;13.30;99.90;;;;;;6246281;23;20298;-72
2022/09/26 16:01:41;;;;;;;0.93;0.63;;;13.30;99.90;;;;;;6246354;23;20175;-70
2022/09/26 16:04:16;;;;;;;1.57;0.60;;;13.30;99.90;;;;;;6246265;23;20214;-72
2022/09/26 16:06:52;;;;;;;1.30;0.90;;;13.40;99.90;;;;;;6246202;23;20182;-72
2022/09/26 16:09:23;;;;;;;1.63;1.00;;;13.40;99.90;;;;;;6245636;23;20672;-72
2022/09/26 16:11:54;;;;;;;2.50;0.73;;;13.50;99.90;;;;;;6244663;23;20639;-71
2022/09/26 16:14:29;;;;;;;1.87;0.70;;;13.50;99.90;;;;;;6245285;23;20179;-72
2022/09/26 16:17:02;;;;;;;2.40;0.83;;;13.50;99.90;;;;;;6245296;23;20179;-71
2022/09/26 16:19:33;;;;;;;1.47;0.70;;;13.60;99.90;;;;;;6245378;23;20195;-72
2022/09/26 16:22:39;;;;;;;2.30;0.70;;;13.60;99.90;;;;;;6245584;23;20179;-72
2022/09/26 16:25:51;;;;;;;1.53;0.80;;;13.70;99.90;;;;;;6245059;22;20206;-73
2022/09/26 16:28:41;;;;;;;1.73;1.00;;;13.60;99.90;;;;;;6151939;23;20740;-72
2022/09/26 16:31:25;;;;;;;1.77;1.30;;;13.60;99.90;;;;;;6245419;22;20183;-72
2022/09/26 16:33:54;;;;;;;1.50;0.87;;;13.50;99.90;;;;;;6245918;23;20183;-72
2022/09/26 16:36:23;;;;;;;3.17;1.40;;;13.50;99.90;;;;;;6245502;23;20175;-71
2022/09/26 16:38:52;;;;;;;2.20;1.30;;;13.50;99.90;;;;;;6245349;23;20184;-72
2022/09/26 16:41:32;;;;;;;1.97;1.10;;;13.50;99.90;;;;;;6245887;23;20202;-72
2022/09/26 16:44:02;;;;;;;2.33;1.47;;;13.50;99.90;;;;;;6244997;23;20203;-72
2022/09/26 16:46:36;;;;;;;2.33;1.60;;;13.50;99.90;;;;;;6245262;23;20218;-72
2022/09/26 16:49:05;;;;;;;1.43;1.10;;;13.60;99.90;;;;;;6245065;23;20249;-72
2022/09/26 16:51:37;;;;;;;1.83;1.53;;;13.70;99.90;;;;;;6245295;23;20176;-73
2022/09/26 16:54:19;;;;;;;3.83;1.60;;;13.70;99.90;;;;;;6245437;23;20176;-73
2022/09/26 16:56:48;;;;;;;1.77;1.07;;;13.60;99.90;;;;;;6246160;22;20188;-73
2022/09/26 16:59:18;;;;;;;2.47;1.33;;;13.70;99.90;;;;;;6244923;23;20199;-72
2022/09/26 17:01:55;;;;;;;2.47;1.37;;;13.70;99.90;;;;;;6244951;23;20194;-72
2022/09/26 17:04:29;;;;;;;2.83;1.70;;;13.70;99.90;;;;;;6245303;23;20186;-73
2022/09/26 17:06:57;;;;;;;2.63;1.90;;;13.60;99.90;;;;;;6245835;23;20183;-73
2022/09/26 17:09:27;;;;;;;2.83;1.37;;;13.50;99.90;;;;;;6245238;23;20226;-73
2022/09/26 17:11:56;;;;;;;3.03;1.30;;;13.50;99.90;;;;;;6245934;23;20565;-73
2022/09/26 17:14:28;;;;;;;2.27;1.40;;;13.50;99.90;;;;;;6244885;22;20171;-73
2022/09/26 17:16:57;;;;;;;2.83;1.50;;;13.50;99.90;;;;;;6245027;23;20184;-73
2022/09/26 17:19:28;;;;;;;2.77;1.57;;;13.40;99.90;;;;;;6244903;23;20662;-72
2022/09/26 17:21:55;;;;;;;5.17;2.20;;;13.40;99.90;;;;;;6245634;23;20230;-71
2022/09/26 17:24:24;;;;;;;6.60;2.70;;;13.40;99.90;;;;;;6244999;23;20180;-73
2022/09/26 17:26:54;;;;;;;5.33;1.67;;;13.40;99.90;;;;;;6244669;22;20207;-72
2022/09/26 17:29:26;;;;;;;2.57;1.07;;;13.30;99.90;;;;;;6245232;22;20195;-73
2022/09/26 17:31:54;;;;;;;2.43;0.93;;;13.10;99.90;;;;;;6244893;23;20175;-73
2022/09/26 17:34:23;;;;;;;1.93;1.00;;;13.00;99.90;;;;;;6244732;22;20641;-73
2022/09/26 17:36:50;;;;;;;1.50;0.90;;;12.90;99.90;;;;;;6246854;23;20175;-72
2022/09/26 17:39:24;;;;;;;1.50;1.10;;;12.80;99.90;;;;;;6247219;23;20258;-72
2022/09/26 17:41:51;;;;;;;3.87;1.27;;;12.80;99.90;;;;;;6246821;23;20202;-71
2022/09/26 17:44:20;;;;;;;8.43;1.47;;;12.80;99.90;;;;;;6246684;22;20536;-73
2022/09/26 17:46:51;;;;;;;5.73;0.80;;;12.70;99.90;;;;;;6247186;23;20207;-73
2022/09/26 17:49:24;;;;;;;2.73;1.10;;;12.70;99.90;;;;;;6247027;23;20231;-74
2022/09/26 17:51:54;;;;;;;2.90;1.00;;;12.60;99.90;;;;;;6246652;23;20179;-73
2022/09/26 17:54:28;;;;;;;4.60;1.40;;;12.50;99.90;;;;;;6246380;23;20218;-71
2022/09/26 17:56:55;;;;;;;3.43;1.00;;;12.50;99.90;;;;;;6247226;23;20179;-73
2022/09/26 17:59:24;;;;;;;5.73;1.40;;;12.50;99.90;;;;;;6246953;23;20202;-71
2022/09/26 18:01:56;;;;;;;4.70;1.10;;;12.50;99.90;;;;;;6246821;23;20548;-72
2022/09/26 18:04:25;;;;;;;4.40;1.80;;;12.50;99.90;;;;;;6246680;23;20262;-73
2022/09/26 18:06:53;;;;;;;6.30;1.50;;;12.40;99.90;;;;;;6246617;23;20738;-74
2022/09/26 18:09:20;;;;;;;5.60;1.20;;;12.50;99.90;;;;;;6246577;23;20195;-73
2022/09/26 18:11:54;;;;;;;5.27;1.63;;;12.50;99.90;;;;;;6247077;23;20266;-72
2022/09/26 18:14:22;;;;;;;5.20;1.37;;;12.40;99.90;;;;;;6246987;23;20175;-72
2022/09/26 18:16:49;;;;;;;3.47;1.37;;;12.30;99.90;;;;;;6246787;23;20678;-74
2022/09/26 18:19:19;;;;;;;6.17;1.80;;;12.30;99.90;;;;;;6247407;22;20229;-71
2022/09/26 18:21:50;;;;;;;8.73;1.37;;;12.20;99.90;;;;;;6247536;22;20549;-72
2022/09/26 18:24:17;;;;;;;9.67;1.50;;;12.20;99.90;;;;;;6246319;22;20187;-72
2022/09/26 18:26:47;;;;;;;7.20;1.07;;;12.20;99.90;;;;;;6247043;23;20524;-72
2022/09/26 18:29:25;;;;;;;4.70;1.17;;;12.20;99.90;;;;;;6246160;23;20191;-73
2022/09/26 18:31:52;;;;;;;5.30;1.23;;;12.10;99.90;;;;;;6246580;23;20553;-74
2022/09/26 18:34:21;;;;;;;10.80;4.57;;;12.20;99.90;;;;;;6246415;23;20715;-71
2022/09/26 18:36:48;;;;;;;12.30;4.73;;;12.20;99.90;;;;;;6246336;23;20716;-74
2022/09/26 18:39:15;;;;;;;9.77;3.97;;;12.20;99.90;;;;;;6237461;23;20265;-70
2022/09/26 18:41:44;;;;;;;16.10;6.17;;;12.20;99.90;;;;;;6246369;23;20179;-73
2022/09/26 18:44:16;;;;;;;8.70;2.13;;;12.20;99.90;;;;;;6242617;23;20657;-69
2022/09/26 18:46:45;;;;;;;6.67;2.60;;;12.20;99.90;;;;;;6241391;23;20214;-69
2022/09/26 18:49:13;;;;;;;6.20;2.20;;;12.20;99.90;;;;;;6245186;23;20200;-69
2022/09/26 18:51:42;;;;;;;6.63;2.17;;;12.20;99.90;;;;;;6245197;23;20176;-71
2022/09/26 18:54:12;;;;;;;8.23;1.80;;;12.20;99.90;;;;;;6245168;23;20487;-69
2022/09/26 18:59:24;;;;;;;5.50;2.00;;;12.20;99.90;;;;;;6245162;23;20205;-70
2022/09/26 19:01:51;;;;;;;7.13;2.50;;;12.20;99.90;;;;;;6246048;23;20485;-71
2022/09/26 19:04:21;;;;;;;4.73;2.23;;;12.20;99.90;;;;;;6245289;22;20182;-71
2022/09/26 19:06:54;;;;;;;10.10;2.50;;;12.20;99.90;;;;;;6245114;23;20211;-71
2022/09/26 19:09:22;;;;;;;9.07;2.87;;;12.10;99.90;;;;;;6244812;23;20722;-70
2022/09/26 19:11:49;;;;;;;5.80;1.80;;;12.20;99.90;;;;;;6245613;23;20175;-70
2022/09/26 19:14:17;;;;;;;5.40;1.80;;;12.20;99.90;;;;;;6245687;23;20275;-72
2022/09/26 19:16:45;;;;;;;8.57;3.83;;;12.40;99.90;;;;;;6245838;23;20191;-71
2022/09/26 19:19:13;;;;;;;10.83;4.20;;;12.40;99.90;;;;;;6244809;23;20200;-71
2022/09/26 19:21:41;;;;;;;5.23;2.63;;;12.30;99.90;;;;;;6245505;23;20182;-71
2022/09/26 19:24:19;;;;;;;5.70;2.17;;;12.30;99.90;;;;;;6245080;23;20266;-71
2022/09/26 19:26:48;;;;;;;4.07;2.20;;;12.30;99.90;;;;;;6245186;23;20692;-71
2022/09/26 19:29:20;;;;;;;6.30;2.07;;;12.40;99.90;;;;;;6244880;23;20274;-72
2022/09/26 19:31:46;;;;;;;3.93;1.67;;;12.30;99.90;;;;;;6245562;23;20266;-70
2022/09/26 19:34:15;;;;;;;3.13;1.47;;;12.20;99.90;;;;;;6244838;23;20176;-72
2022/09/26 19:36:42;;;;;;;19.37;6.30;;;12.20;99.90;;;;;;6245265;23;20176;-71
2022/09/26 19:39:12;;;;;;;4.03;1.40;;;12.30;99.90;;;;;;6244879;23;20258;-71
2022/09/26 19:41:39;;;;;;;3.57;1.27;;;12.30;99.90;;;;;;6245521;22;20702;-71
2022/09/26 19:44:06;;;;;;;6.00;1.40;;;12.20;99.90;;;;;;6245157;23;20180;-71
2022/09/26 19:46:34;;;;;;;5.23;1.67;;;12.20;99.90;;;;;;6245465;23;20230;-71
2022/09/26 19:49:02;;;;;;;1.90;0.90;;;12.20;99.90;;;;;;6245368;22;20196;-72
2022/09/26 19:51:29;;;;;;;2.27;1.87;;;12.10;99.90;;;;;;6245008;23;20183;-72
2022/09/26 19:53:57;;;;;;;3.63;1.23;;;12.00;99.90;;;;;;6244970;22;20691;-72
2022/09/26 19:56:25;;;;;;;5.17;0.90;;;12.00;99.90;;;;;;6244985;23;20259;-72
2022/09/26 19:58:52;;;;;;;1.80;0.93;;;12.10;99.90;;;;;;6244353;23;20183;-72
2022/09/26 20:01:22;;;;;;;1.47;1.07;;;12.10;99.90;;;;;;6244647;23;20640;-72
2022/09/26 20:03:49;;;;;;;3.50;1.20;;;12.10;99.90;;;;;;6245218;23;20186;-71
2022/09/26 20:06:19;;;;;;;3.23;0.80;;;12.10;99.90;;;;;;6245049;23;20207;-71
2022/09/26 20:08:46;;;;;;;3.37;1.40;;;12.00;99.90;;;;;;6244958;23;20186;-71
2022/09/26 20:11:15;;;;;;;1.13;0.70;;;11.90;99.90;;;;;;6244699;23;20175;-70
2022/09/26 20:16:30;;;;;;;3.53;1.10;;;11.90;99.90;;;;;;6244531;23;20229;-71
2022/09/26 20:18:58;;;;;;;3.30;1.20;;;11.90;99.90;;;;;;6245240;23;20204;-70
2022/09/26 20:21:27;;;;;;;1.83;1.00;;;11.90;99.90;;;;;;6244427;22;20198;-71
2022/09/26 20:23:56;;;;;;;5.23;1.07;;;11.90;99.90;;;;;;6244538;23;20186;-71
2022/09/26 20:26:23;;;;;;;2.77;1.10;;;11.90;99.90;;;;;;6245142;22;20282;-71
2022/09/26 20:28:51;;;;;;;4.40;0.90;;;11.90;99.90;;;;;;6245418;22;20524;-71